createdAt,value
2017-09-30T00:01:18.307Z,28.41
2017-09-30T00:03:48.262Z,28.30
2017-09-30T00:06:18.671Z,28.42
2017-09-30T00:08:49.777Z,28.43
2017-09-30T00:11:24.204Z,28.42
2017-09-30T00:13:54.951Z,28.42
2017-09-30T00:16:24.951Z,28.41
2017-09-30T00:18:59.227Z,27.97
2017-09-30T00:21:29.332Z,28.39
2017-09-30T00:23:59.258Z,28.39
2017-09-30T00:26:29.380Z,28.28
2017-09-30T00:29:01.788Z,28.39
2017-09-30T00:31:35.717Z,28.28
2017-09-30T00:34:06.986Z,28.39
2017-09-30T00:36:40.219Z,28.30
2017-09-30T00:39:11.351Z,28.39
2017-09-30T00:41:42.606Z,28.37
2017-09-30T00:44:12.720Z,28.34
2017-09-30T00:46:44.129Z,28.25
2017-09-30T00:49:16.070Z,28.37
2017-09-30T00:51:46.685Z,28.26
2017-09-30T00:54:16.868Z,28.37
2017-09-30T00:56:47.332Z,28.37
2017-09-30T00:59:18.191Z,28.37
2017-09-30T01:01:48.778Z,28.37
2017-09-30T01:04:19.623Z,28.17
2017-09-30T01:06:52.084Z,27.79
2017-09-30T01:09:26.303Z,28.38
2017-09-30T01:12:01.756Z,28.39
2017-09-30T01:14:32.601Z,28.37
2017-09-30T01:17:03.826Z,28.26
2017-09-30T01:19:36.513Z,28.35
2017-09-30T01:22:06.789Z,28.24
2017-09-30T01:24:37.924Z,28.36
2017-09-30T01:27:08.865Z,28.36
2017-09-30T01:29:45.926Z,28.36
2017-09-30T01:32:22.022Z,28.22
2017-09-30T01:34:51.867Z,28.36
2017-09-30T01:37:23.477Z,27.92
2017-09-30T01:39:54.006Z,28.23
2017-09-30T01:42:24.233Z,28.05
2017-09-30T01:44:54.376Z,28.36
2017-09-30T01:47:24.864Z,28.37
2017-09-30T01:49:55.030Z,28.37
2017-09-30T01:52:25.679Z,28.37
2017-09-30T01:54:55.655Z,28.36
2017-09-30T01:57:26.056Z,28.25
2017-09-30T01:59:56.508Z,28.36
2017-09-30T02:02:26.333Z,28.06
2017-09-30T02:04:56.077Z,28.35
2017-09-30T02:07:25.977Z,28.35
2017-09-30T02:09:56.330Z,28.13
2017-09-30T02:12:27.474Z,28.36
2017-09-30T02:14:58.339Z,27.80
2017-09-30T02:17:27.981Z,28.38
2017-09-30T02:19:58.063Z,28.37
2017-09-30T02:22:27.833Z,28.37
2017-09-30T02:24:57.932Z,28.37
2017-09-30T02:27:27.598Z,28.38
2017-09-30T02:29:57.161Z,28.38
2017-09-30T02:32:28.451Z,28.36
2017-09-30T02:34:59.184Z,28.26
2017-09-30T02:37:28.868Z,28.36
2017-09-30T02:40:00.921Z,28.02
2017-09-30T02:42:31.065Z,28.35
2017-09-30T02:45:02.649Z,28.33
2017-09-30T02:47:32.803Z,28.32
2017-09-30T02:50:02.512Z,28.35
2017-09-30T02:52:33.799Z,28.36
2017-09-30T02:55:03.941Z,28.14
2017-09-30T02:57:33.839Z,28.32
2017-09-30T03:00:07.603Z,28.15
2017-09-30T03:02:37.624Z,28.36
2017-09-30T03:05:07.279Z,28.24
2017-09-30T03:07:37.321Z,27.78
2017-09-30T03:10:08.582Z,28.25
2017-09-30T03:12:37.940Z,28.35
2017-09-30T03:15:08.161Z,28.35
2017-09-30T03:17:38.663Z,27.91
2017-09-30T03:20:08.487Z,28.35
2017-09-30T03:22:40.786Z,28.35
2017-09-30T03:25:11.287Z,28.31
2017-09-30T03:27:42.968Z,27.90
2017-09-30T03:30:13.722Z,28.21
2017-09-30T03:32:43.381Z,28.33
2017-09-30T03:35:15.747Z,28.32
2017-09-30T03:37:46.340Z,28.33
2017-09-30T03:40:17.321Z,28.33
2017-09-30T03:42:47.690Z,28.34
2017-09-30T03:45:17.880Z,28.32
2017-09-30T03:47:47.724Z,28.34
2017-09-30T03:50:17.730Z,28.32
2017-09-30T03:52:48.721Z,28.33
2017-09-30T03:55:18.486Z,28.33
2017-09-30T03:57:50.740Z,28.33
2017-09-30T04:00:20.822Z,28.33
2017-09-30T04:02:51.057Z,28.33
2017-09-30T04:05:22.139Z,28.33
2017-09-30T04:07:53.550Z,28.34
2017-09-30T04:10:23.031Z,28.33
2017-09-30T04:12:52.932Z,28.33
2017-09-30T04:15:22.984Z,28.20
2017-09-30T04:17:52.599Z,28.10
2017-09-30T04:20:23.068Z,28.34
2017-09-30T04:22:52.738Z,28.34
2017-09-30T04:25:22.258Z,28.35
2017-09-30T04:27:52.398Z,28.35
2017-09-30T04:30:23.797Z,28.35
2017-09-30T04:32:55.080Z,28.24
2017-09-30T04:35:25.999Z,28.33
2017-09-30T04:37:57.222Z,28.23
2017-09-30T04:40:29.099Z,28.22
2017-09-30T04:43:00.727Z,28.32
2017-09-30T04:45:31.127Z,28.31
2017-09-30T04:48:00.521Z,28.19
2017-09-30T04:50:30.865Z,27.96
2017-09-30T04:53:00.508Z,28.30
2017-09-30T04:55:31.592Z,28.31
2017-09-30T04:58:04.908Z,28.19
2017-09-30T05:00:34.644Z,28.10
2017-09-30T05:03:04.708Z,28.31
2017-09-30T05:05:34.962Z,28.30
2017-09-30T05:08:06.862Z,28.18
2017-09-30T05:10:38.660Z,28.07
2017-09-30T05:13:09.128Z,28.30
2017-09-30T05:15:40.051Z,28.29
2017-09-30T05:18:19.081Z,28.28
2017-09-30T05:20:49.437Z,28.26
2017-09-30T05:23:19.896Z,28.01
2017-09-30T05:25:51.173Z,28.26
2017-09-30T05:28:20.826Z,28.26
2017-09-30T05:30:51.001Z,28.25
2017-09-30T05:33:20.739Z,28.25
2017-09-30T05:35:50.321Z,28.25
2017-09-30T05:38:20.574Z,28.25
2017-09-30T05:40:51.395Z,28.25
2017-09-30T05:43:22.278Z,28.24
2017-09-30T05:45:52.607Z,28.23
2017-09-30T05:48:23.056Z,28.26
2017-09-30T05:50:53.439Z,28.24
2017-09-30T05:53:23.937Z,28.24
2017-09-30T05:55:56.311Z,27.99
2017-09-30T05:58:25.916Z,28.23
2017-09-30T06:01:03.518Z,28.23
2017-09-30T06:03:33.164Z,27.89
2017-09-30T06:06:04.333Z,28.26
2017-09-30T06:08:34.145Z,28.27
2017-09-30T06:11:05.652Z,28.28
2017-09-30T06:13:36.893Z,28.27
2017-09-30T06:16:09.570Z,28.27
2017-09-30T06:18:44.157Z,28.18
2017-09-30T06:21:18.602Z,28.15
2017-09-30T06:23:49.225Z,28.30
2017-09-30T06:26:19.362Z,28.30
2017-09-30T06:28:49.388Z,27.54
2017-09-30T06:31:20.083Z,28.31
2017-09-30T06:33:51.091Z,28.32
2017-09-30T06:36:33.112Z,27.98
2017-09-30T06:39:04.327Z,28.33
2017-09-30T06:41:36.173Z,28.11
2017-09-30T06:44:14.648Z,28.34
2017-09-30T06:46:51.369Z,28.35
2017-09-30T06:49:22.899Z,28.36
2017-09-30T06:51:55.086Z,28.37
2017-09-30T06:54:26.100Z,28.37
2017-09-30T06:56:56.223Z,28.37
2017-09-30T06:59:26.739Z,28.36
2017-09-30T07:01:57.070Z,28.35
2017-09-30T07:04:27.031Z,28.34
2017-09-30T07:06:58.524Z,28.00
2017-09-30T07:09:29.971Z,28.35
2017-09-30T07:12:02.138Z,28.36
2017-09-30T07:14:34.287Z,28.37
2017-09-30T07:17:05.633Z,28.38
2017-09-30T07:19:37.578Z,28.27
2017-09-30T07:22:08.252Z,28.37
2017-09-30T07:24:41.319Z,28.37
2017-09-30T07:27:17.307Z,28.37
2017-09-30T07:29:50.359Z,28.36
2017-09-30T07:32:26.581Z,28.36
2017-09-30T07:34:59.593Z,28.37
2017-09-30T07:37:33.622Z,28.26
2017-09-30T07:40:05.981Z,28.38
2017-09-30T07:42:38.564Z,28.38
2017-09-30T07:45:11.883Z,28.38
2017-09-30T07:47:43.624Z,28.38
2017-09-30T07:50:22.462Z,28.37
2017-09-30T07:52:55.646Z,28.16
2017-09-30T07:55:29.409Z,28.42
2017-09-30T07:58:06.021Z,28.32
2017-09-30T08:00:51.786Z,28.43
2017-09-30T08:03:24.956Z,28.44
2017-09-30T08:05:59.047Z,28.46
2017-09-30T08:08:31.035Z,28.44
2017-09-30T08:11:06.576Z,28.43
2017-09-30T08:13:38.989Z,28.42
2017-09-30T08:16:09.841Z,28.31
2017-09-30T08:18:42.294Z,28.42
2017-09-30T08:21:14.443Z,28.43
2017-09-30T08:23:50.657Z,28.43
2017-09-30T08:26:24.515Z,28.44
2017-09-30T08:28:55.176Z,28.45
2017-09-30T08:31:27.274Z,28.44
2017-09-30T08:33:59.749Z,28.42
2017-09-30T08:36:34.468Z,28.32
2017-09-30T08:39:10.857Z,28.44
2017-09-30T08:41:44.558Z,28.43
2017-09-30T08:44:27.209Z,28.43
2017-09-30T08:46:57.904Z,28.44
2017-09-30T08:49:28.962Z,28.44
2017-09-30T08:51:59.323Z,28.45
2017-09-30T08:54:30.517Z,28.34
2017-09-30T08:57:05.821Z,28.46
2017-09-30T08:59:39.723Z,28.36
2017-09-30T09:02:17.020Z,28.47
2017-09-30T09:04:47.760Z,28.47
2017-09-30T09:07:17.431Z,28.48
2017-09-30T09:09:48.421Z,28.48
2017-09-30T09:12:18.795Z,28.49
2017-09-30T09:14:50.233Z,28.50
2017-09-30T09:17:21.406Z,28.51
2017-09-30T09:19:51.592Z,28.50
2017-09-30T09:22:24.523Z,28.49
2017-09-30T09:24:54.834Z,28.52
2017-09-30T09:27:26.561Z,28.53
2017-09-30T09:29:57.267Z,28.43
2017-09-30T09:32:33.701Z,28.56
2017-09-30T09:35:05.285Z,28.55
2017-09-30T09:37:35.283Z,28.56
2017-09-30T09:40:06.507Z,28.57
2017-09-30T09:42:36.276Z,28.59
2017-09-30T09:45:09.438Z,28.37
2017-09-30T09:47:44.625Z,28.29
2017-09-30T09:50:15.144Z,28.51
2017-09-30T09:52:48.098Z,28.61
2017-09-30T09:55:18.306Z,28.61
2017-09-30T09:57:48.273Z,28.61
2017-09-30T10:00:20.548Z,28.61
2017-09-30T10:02:51.858Z,28.60
2017-09-30T10:05:30.501Z,28.59
2017-09-30T10:08:00.400Z,28.58
2017-09-30T10:10:30.456Z,28.37
2017-09-30T10:13:00.322Z,28.60
2017-09-30T10:15:30.722Z,28.62
2017-09-30T10:18:05.510Z,28.61
2017-09-30T10:20:42.564Z,28.61
2017-09-30T10:23:23.370Z,28.51
2017-09-30T10:25:55.306Z,28.60
2017-09-30T10:28:26.692Z,28.61
2017-09-30T10:30:57.198Z,28.62
2017-09-30T10:33:27.777Z,28.63
2017-09-30T10:35:58.339Z,28.52
2017-09-30T10:38:27.861Z,28.62
2017-09-30T10:41:02.075Z,28.63
2017-09-30T10:43:40.689Z,28.67
2017-09-30T10:46:13.726Z,28.67
2017-09-30T10:48:44.482Z,28.66
2017-09-30T10:51:15.473Z,28.66
2017-09-30T10:53:46.712Z,28.54
2017-09-30T10:56:20.096Z,28.66
2017-09-30T10:58:50.000Z,28.67
2017-09-30T11:01:21.897Z,28.67
2017-09-30T11:03:52.092Z,28.66
2017-09-30T11:06:22.784Z,28.67
2017-09-30T11:09:00.356Z,28.47
2017-09-30T11:11:32.016Z,28.59
2017-09-30T11:14:01.838Z,28.70
2017-09-30T11:16:33.441Z,28.61
2017-09-30T11:19:03.367Z,28.74
2017-09-30T11:21:33.447Z,28.54
2017-09-30T11:24:03.548Z,28.75
2017-09-30T11:26:38.373Z,28.54
2017-09-30T11:29:12.820Z,28.65
2017-09-30T11:31:47.333Z,28.67
2017-09-30T11:34:26.656Z,28.78
2017-09-30T11:36:59.137Z,28.80
2017-09-30T11:39:35.927Z,28.81
2017-09-30T11:42:09.133Z,28.85
2017-09-30T11:44:49.961Z,28.86
2017-09-30T11:47:22.637Z,28.74
2017-09-30T11:49:55.457Z,28.73
2017-09-30T11:52:29.572Z,28.84
2017-09-30T11:54:59.971Z,28.85
2017-09-30T11:57:30.548Z,28.73
2017-09-30T12:00:02.665Z,28.85
2017-09-30T12:02:37.755Z,28.86
2017-09-30T12:05:16.072Z,28.85
2017-09-30T12:07:49.177Z,28.85
2017-09-30T12:10:21.489Z,28.86
2017-09-30T12:12:53.863Z,28.87
2017-09-30T12:15:24.982Z,28.88
2017-09-30T12:17:55.014Z,28.89
2017-09-30T12:20:26.128Z,28.78
2017-09-30T12:22:55.525Z,28.92
2017-09-30T12:25:29.481Z,28.93
2017-09-30T12:28:04.817Z,28.93
2017-09-30T12:30:38.251Z,28.95
2017-09-30T12:33:10.669Z,28.97
2017-09-30T12:35:41.838Z,28.99
2017-09-30T12:38:13.927Z,28.99
2017-09-30T12:40:45.255Z,29.00
2017-09-30T12:43:17.227Z,28.77
2017-09-30T12:45:48.228Z,28.78
2017-09-30T12:48:34.985Z,28.99
2017-09-30T12:51:06.052Z,28.99
2017-09-30T12:53:41.277Z,28.98
2017-09-30T12:56:16.393Z,28.95
2017-09-30T12:58:46.817Z,28.60
2017-09-30T13:01:16.626Z,28.83
2017-09-30T13:03:46.717Z,28.93
2017-09-30T13:06:17.257Z,28.93
2017-09-30T13:08:47.157Z,28.93
2017-09-30T13:11:16.935Z,28.80
2017-09-30T13:13:46.631Z,28.91
2017-09-30T13:16:17.296Z,28.93
2017-09-30T13:18:47.190Z,28.93
2017-09-30T13:21:19.786Z,28.84
2017-09-30T13:23:50.235Z,28.98
2017-09-30T13:26:20.417Z,29.01
2017-09-30T13:28:50.672Z,28.80
2017-09-30T13:31:25.623Z,29.03
2017-09-30T13:34:00.064Z,29.05
2017-09-30T13:36:32.488Z,29.06
2017-09-30T13:39:03.908Z,29.09
2017-09-30T13:41:35.373Z,29.09
2017-09-30T13:44:05.222Z,29.11
2017-09-30T13:46:43.327Z,29.02
2017-09-30T13:49:17.456Z,28.58
2017-09-30T13:51:47.832Z,29.16
2017-09-30T13:54:23.068Z,28.91
2017-09-30T13:56:55.290Z,28.06
2017-09-30T13:59:29.808Z,29.16
2017-09-30T14:02:01.725Z,28.61
2017-09-30T14:04:36.259Z,29.18
2017-09-30T14:07:09.859Z,29.17
2017-09-30T14:09:42.258Z,28.83
2017-09-30T14:12:14.766Z,28.62
2017-09-30T14:14:51.034Z,29.05
2017-09-30T14:17:21.115Z,29.05
2017-09-30T14:19:51.279Z,29.14
2017-09-30T14:22:23.718Z,29.14
2017-09-30T14:24:58.471Z,28.36
2017-09-30T14:27:29.963Z,29.14
2017-09-30T14:30:03.481Z,29.12
2017-09-30T14:32:34.662Z,28.89
2017-09-30T14:35:04.416Z,29.10
2017-09-30T14:37:38.474Z,29.09
2017-09-30T14:40:12.648Z,28.96
2017-09-30T14:42:49.541Z,28.65
2017-09-30T14:45:19.131Z,29.03
2017-09-30T14:47:50.378Z,29.01
2017-09-30T14:50:23.388Z,28.98
2017-09-30T14:52:55.103Z,28.27
2017-09-30T14:55:25.481Z,28.97
2017-09-30T14:57:55.252Z,28.97
2017-09-30T15:00:27.032Z,28.97
2017-09-30T15:02:59.372Z,29.00
2017-09-30T15:05:30.354Z,28.91
2017-09-30T15:08:07.010Z,28.79
2017-09-30T15:10:38.821Z,28.80
2017-09-30T15:13:11.352Z,28.81
2017-09-30T15:15:42.138Z,29.03
2017-09-30T15:18:13.927Z,29.00
2017-09-30T15:20:44.595Z,28.95
2017-09-30T15:23:14.821Z,28.94
2017-09-30T15:25:45.516Z,28.95
2017-09-30T15:28:16.809Z,28.95
2017-09-30T15:30:49.110Z,28.78
2017-09-30T15:33:24.014Z,28.94
2017-09-30T15:35:55.437Z,28.95
2017-09-30T15:38:26.798Z,28.96
2017-09-30T15:41:00.446Z,28.84
2017-09-30T15:43:34.556Z,28.95
2017-09-30T15:46:04.455Z,28.95
2017-09-30T15:48:36.278Z,28.95
2017-09-30T15:51:09.511Z,28.94
2017-09-30T15:56:34.999Z,28.94
2017-09-30T15:59:10.071Z,28.93
2017-09-30T16:01:42.787Z,28.81
2017-09-30T16:04:16.998Z,28.82
2017-09-30T16:06:50.238Z,28.93
2017-09-30T16:09:26.227Z,28.92
2017-09-30T16:11:56.719Z,28.90
2017-09-30T16:14:27.090Z,28.93
2017-09-30T16:16:58.306Z,28.82
2017-09-30T16:19:28.771Z,28.82
2017-09-30T16:21:59.113Z,28.94
2017-09-30T16:24:32.220Z,28.94
2017-09-30T16:27:08.460Z,28.94
2017-09-30T16:29:39.566Z,28.95
2017-09-30T16:32:13.715Z,28.95
2017-09-30T16:34:49.373Z,28.83
2017-09-30T16:37:23.552Z,28.72
2017-09-30T16:39:55.916Z,28.83
2017-09-30T16:42:31.497Z,28.71
2017-09-30T16:45:02.539Z,28.94
2017-09-30T16:47:35.698Z,28.94
2017-09-30T16:50:17.869Z,28.82
2017-09-30T16:52:51.718Z,28.81
2017-09-30T16:55:23.850Z,28.93
2017-09-30T16:57:54.052Z,28.80
2017-09-30T17:00:27.624Z,28.92
2017-09-30T17:03:00.374Z,28.80
2017-09-30T17:05:32.549Z,28.91
2017-09-30T17:08:03.949Z,28.92
2017-09-30T17:10:35.718Z,28.91
2017-09-30T17:13:06.337Z,28.91
2017-09-30T17:15:37.183Z,28.78
2017-09-30T17:18:09.307Z,28.87
2017-09-30T17:20:40.197Z,28.86
2017-09-30T17:23:12.993Z,28.86
2017-09-30T17:25:45.045Z,28.75
2017-09-30T17:28:16.825Z,28.86
2017-09-30T17:30:47.085Z,28.74
2017-09-30T17:33:18.042Z,28.86
2017-09-30T17:35:51.198Z,28.85
2017-09-30T17:38:22.553Z,28.86
2017-09-30T17:40:54.601Z,28.86
2017-09-30T17:43:27.035Z,28.86
2017-09-30T17:45:58.488Z,28.86
2017-09-30T17:48:29.962Z,28.86
2017-09-30T17:51:01.457Z,28.87
2017-09-30T17:53:32.426Z,28.87
2017-09-30T17:56:04.213Z,28.86
2017-09-30T17:58:35.432Z,28.86
2017-09-30T18:01:08.476Z,28.50
2017-09-30T18:03:38.796Z,28.73
2017-09-30T18:06:11.498Z,28.73
2017-09-30T18:08:45.449Z,28.85
2017-09-30T18:11:16.727Z,28.77
2017-09-30T18:13:47.877Z,28.73
2017-09-30T18:16:19.808Z,28.84
2017-09-30T18:18:51.467Z,28.84
2017-09-30T18:21:23.831Z,28.84
2017-09-30T18:23:55.980Z,28.72
2017-09-30T18:26:27.689Z,28.85
2017-09-30T18:28:59.276Z,28.83
2017-09-30T18:31:32.868Z,28.85
2017-09-30T18:34:13.579Z,28.84
2017-09-30T18:36:53.906Z,28.73
2017-09-30T18:39:29.807Z,28.83
2017-09-30T18:42:14.074Z,28.72
2017-09-30T18:44:50.421Z,28.81
2017-09-30T18:47:29.085Z,28.80
2017-09-30T18:50:14.674Z,28.80
2017-09-30T18:52:46.751Z,28.80
2017-09-30T18:55:18.653Z,28.79
2017-09-30T18:57:52.125Z,28.78
2017-09-30T19:00:23.059Z,28.79
2017-09-30T19:02:53.657Z,28.78
2017-09-30T19:05:26.396Z,28.78
2017-09-30T19:07:57.920Z,28.77
2017-09-30T19:10:30.638Z,28.65
2017-09-30T19:13:04.992Z,28.76
2017-09-30T19:15:39.591Z,28.75
2017-09-30T19:18:11.278Z,28.75
2017-09-30T19:20:45.542Z,28.75
2017-09-30T19:26:49.910Z,28.75
2017-09-30T19:29:21.094Z,28.74
2017-09-30T19:31:51.386Z,28.74
2017-09-30T19:34:23.780Z,28.62
2017-09-30T19:36:54.861Z,28.73
2017-09-30T19:39:30.430Z,28.61
2017-09-30T19:42:00.806Z,28.73
2017-09-30T19:44:33.751Z,28.60
2017-09-30T19:47:04.258Z,28.72
2017-09-30T19:49:34.685Z,28.71
2017-09-30T19:52:04.699Z,28.59
2017-09-30T19:54:34.702Z,28.71
2017-09-30T19:57:05.174Z,28.56
2017-09-30T19:59:35.542Z,28.59
2017-09-30T20:02:05.926Z,28.59
2017-09-30T20:04:35.540Z,28.71
2017-09-30T20:07:06.570Z,28.59
2017-09-30T20:09:36.903Z,28.71
2017-09-30T20:12:06.794Z,28.71
2017-09-30T20:14:38.219Z,28.71
2017-09-30T20:17:09.517Z,28.72
2017-09-30T20:19:39.478Z,28.60
2017-09-30T20:22:09.933Z,28.70
2017-09-30T20:24:40.950Z,28.71
2017-09-30T20:27:10.950Z,28.59
2017-09-30T20:29:41.861Z,28.48
2017-09-30T20:32:14.703Z,28.46
2017-09-30T20:34:46.585Z,28.69
2017-09-30T20:37:23.743Z,28.69
2017-09-30T20:39:57.526Z,28.68
2017-09-30T20:42:30.706Z,28.67
2017-09-30T20:45:02.935Z,28.67
2017-09-30T20:47:35.847Z,28.66
2017-09-30T20:50:07.388Z,28.66
2017-09-30T20:52:39.239Z,28.54
2017-09-30T20:55:11.051Z,28.54
2017-09-30T20:57:41.507Z,28.65
2017-09-30T21:00:13.336Z,28.64
2017-09-30T21:02:46.587Z,28.42
2017-09-30T21:05:17.265Z,28.64
2017-09-30T21:07:51.396Z,28.55
2017-09-30T21:10:22.557Z,28.63
2017-09-30T21:12:54.367Z,28.64
2017-09-30T21:15:25.391Z,28.63
2017-09-30T21:17:55.903Z,28.62
2017-09-30T21:20:26.906Z,28.62
2017-09-30T21:22:58.321Z,28.62
2017-09-30T21:25:28.418Z,28.62
2017-09-30T21:28:00.491Z,28.61
2017-09-30T21:30:32.976Z,28.61
2017-09-30T21:33:05.691Z,28.59
2017-09-30T21:35:37.185Z,28.58
2017-09-30T21:38:12.807Z,28.47
2017-09-30T21:40:47.026Z,28.34
2017-09-30T21:43:18.769Z,28.57
2017-09-30T21:45:50.094Z,28.56
2017-09-30T21:48:26.390Z,28.56
2017-09-30T21:50:58.850Z,28.56
2017-09-30T21:53:29.953Z,28.43
2017-09-30T21:56:03.251Z,28.55
2017-09-30T21:58:34.868Z,28.56
2017-09-30T22:01:07.426Z,28.55
2017-09-30T22:03:39.548Z,28.51
2017-09-30T22:06:25.869Z,28.55
2017-09-30T22:09:12.674Z,28.56
2017-09-30T22:11:47.328Z,28.57
2017-09-30T22:14:17.503Z,28.54
2017-09-30T22:16:48.154Z,28.53
2017-09-30T22:19:17.765Z,28.53
2017-09-30T22:21:47.936Z,28.52
2017-09-30T22:24:19.151Z,28.52
2017-09-30T22:26:49.410Z,28.52
2017-09-30T22:29:21.510Z,28.52
2017-09-30T22:31:52.367Z,28.51
2017-09-30T22:34:23.208Z,28.51
2017-09-30T22:36:53.772Z,28.51
2017-09-30T22:39:24.520Z,28.51
2017-09-30T22:41:55.690Z,28.51
2017-09-30T22:44:27.573Z,28.40
2017-09-30T22:46:59.496Z,28.51
2017-09-30T22:49:29.852Z,28.51
2017-09-30T22:52:00.887Z,28.48
2017-09-30T22:54:32.191Z,28.50
2017-09-30T22:57:05.013Z,28.05
2017-09-30T22:59:38.009Z,28.50
2017-09-30T23:02:12.400Z,28.27
2017-09-30T23:04:44.696Z,28.49
2017-09-30T23:07:17.193Z,28.03
2017-09-30T23:09:51.796Z,28.50
2017-09-30T23:12:23.335Z,28.19
2017-09-30T23:14:54.029Z,28.29
2017-09-30T23:17:28.549Z,28.55
2017-09-30T23:20:00.505Z,28.50
2017-09-30T23:22:32.401Z,28.49
2017-09-30T23:25:02.716Z,28.36
2017-09-30T23:27:33.528Z,28.24
2017-09-30T23:30:09.378Z,28.48
2017-09-30T23:32:40.760Z,28.24
2017-09-30T23:35:12.555Z,28.47
2017-09-30T23:37:43.859Z,28.47
2017-09-30T23:40:15.203Z,28.47
2017-09-30T23:42:46.900Z,28.49
2017-09-30T23:45:18.228Z,28.48
2017-09-30T23:47:50.435Z,28.48
2017-09-30T23:50:22.413Z,28.47
2017-09-30T23:52:54.831Z,27.81
2017-09-30T23:55:29.908Z,28.46
2017-09-30T23:58:00.048Z,28.46
